createdAt,value
2022-08-22T00:02:26.246Z,72.41
2022-08-22T00:02:59.227Z,73.27
2022-08-22T00:05:02.775Z,72.21
2022-08-22T00:07:42.870Z,76.35
2022-08-22T00:10:24.941Z,72.55
2022-08-22T00:13:02.147Z,74.53
2022-08-22T00:15:43.485Z,73.48
2022-08-22T00:18:18.082Z,71.16
2022-08-22T00:20:50.334Z,72.21
2022-08-22T00:23:28.427Z,72.79
2022-08-22T00:26:02.983Z,74.95
2022-08-22T00:28:35.576Z,73.34
2022-08-22T00:31:31.834Z,73.66
2022-08-22T00:34:05.627Z,70.79
2022-08-22T00:36:39.020Z,73.71
2022-08-22T00:39:16.972Z,72.45
2022-08-22T00:42:31.262Z,72.76
2022-08-22T00:45:40.839Z,75.09
2022-08-22T00:48:40.214Z,75.63
2022-08-22T00:51:34.872Z,77.68
2022-08-22T00:54:17.858Z,73.54
2022-08-22T00:57:20.544Z,72.26
2022-08-22T01:00:20.770Z,76.54
2022-08-22T01:03:29.070Z,72.17
2022-08-22T01:06:09.260Z,76.53
2022-08-22T01:08:55.125Z,74.27
2022-08-22T01:11:47.424Z,72.63
2022-08-22T01:14:35.007Z,76.57
2022-08-22T01:17:16.895Z,73.44
2022-08-22T01:20:19.185Z,75.26
2022-08-22T01:23:27.049Z,73.25
2022-08-22T01:26:25.769Z,73.68
2022-08-22T01:29:31.584Z,73.46
2022-08-22T01:32:36.493Z,75.88
2022-08-22T01:35:42.346Z,75.45
2022-08-22T01:38:34.859Z,76.67
2022-08-22T01:41:19.969Z,78.27
2022-08-22T01:44:09.016Z,75.99
2022-08-22T01:46:48.539Z,78.00
2022-08-22T01:49:22.912Z,75.75
2022-08-22T01:51:58.528Z,79.30
2022-08-22T01:54:36.073Z,75.91
2022-08-22T01:57:08.234Z,76.47
2022-08-22T01:59:42.612Z,75.22
2022-08-22T02:02:26.235Z,75.89
2022-08-22T02:05:01.114Z,78.63
2022-08-22T02:07:39.941Z,77.04
2022-08-22T02:10:16.793Z,80.34
2022-08-22T02:12:54.041Z,81.83
2022-08-22T02:15:25.524Z,80.49
2022-08-22T02:18:12.401Z,77.28
2022-08-22T02:20:55.152Z,75.29
2022-08-22T02:23:37.286Z,75.45
2022-08-22T02:26:09.788Z,77.69
2022-08-22T02:28:56.443Z,76.90
2022-08-22T02:31:38.264Z,77.00
2022-08-22T02:34:24.271Z,78.42
2022-08-22T02:36:58.217Z,81.04
2022-08-22T02:39:37.202Z,77.75
2022-08-22T02:42:21.387Z,75.16
2022-08-22T02:44:59.176Z,80.75
2022-08-22T02:47:34.045Z,80.38
2022-08-22T02:50:12.969Z,80.39
2022-08-22T02:52:58.703Z,82.73
2022-08-22T02:55:40.002Z,80.12
2022-08-22T02:58:15.649Z,80.50
2022-08-22T03:00:48.656Z,81.02
2022-08-22T03:03:22.019Z,80.49
2022-08-22T03:06:01.413Z,81.08
2022-08-22T03:08:33.406Z,79.11
2022-08-22T03:11:23.087Z,80.50
2022-08-22T03:14:00.102Z,77.07
2022-08-22T03:16:36.345Z,78.87
2022-08-22T03:19:13.225Z,78.70
2022-08-22T03:21:57.834Z,81.38
2022-08-22T03:24:37.940Z,80.35
2022-08-22T03:27:12.085Z,83.79
2022-08-22T03:29:47.966Z,77.55
2022-08-22T03:32:19.315Z,79.79
2022-08-22T03:34:59.281Z,81.39
2022-08-22T03:37:39.172Z,78.92
2022-08-22T03:40:23.673Z,82.79
2022-08-22T03:43:40.343Z,82.71
2022-08-22T03:46:55.887Z,83.37
2022-08-22T03:50:00.926Z,79.90
2022-08-22T03:53:19.030Z,80.89
2022-08-22T03:56:21.711Z,80.27
2022-08-22T03:59:16.420Z,83.91
2022-08-22T04:02:41.755Z,80.04
2022-08-22T04:05:20.012Z,80.90
2022-08-22T04:08:31.878Z,80.90
2022-08-22T04:11:21.564Z,83.69
2022-08-22T04:14:34.203Z,78.83
2022-08-22T04:17:37.771Z,79.62
2022-08-22T04:20:26.888Z,81.07
2022-08-22T04:23:36.622Z,90.13
2022-08-22T04:26:14.380Z,86.71
2022-08-22T04:28:47.834Z,86.30
2022-08-22T04:31:19.873Z,85.22
2022-08-22T04:33:55.317Z,86.37
2022-08-22T04:36:32.103Z,85.85
2022-08-22T04:39:05.909Z,83.03
2022-08-22T04:41:42.777Z,85.33
2022-08-22T04:44:17.197Z,88.62
2022-08-22T04:46:50.689Z,86.55
2022-08-22T04:49:27.689Z,83.96
2022-08-22T04:52:04.208Z,88.36
2022-08-22T04:54:46.918Z,85.84
2022-08-22T04:57:29.167Z,83.92
2022-08-22T05:00:00.482Z,84.27
2022-08-22T05:02:28.935Z,82.26
2022-08-22T05:05:05.027Z,81.29
2022-08-22T05:07:47.136Z,83.49
2022-08-22T05:10:21.027Z,83.79
2022-08-22T05:12:54.976Z,83.80
2022-08-22T05:15:27.299Z,83.14
2022-08-22T05:18:00.040Z,82.49
2022-08-22T05:20:31.218Z,84.87
2022-08-22T05:23:00.841Z,86.57
2022-08-22T05:25:32.842Z,87.07
2022-08-22T05:28:12.198Z,87.21
2022-08-22T05:30:41.057Z,90.76
2022-08-22T05:33:19.744Z,90.13
2022-08-22T05:35:57.851Z,89.50
2022-08-22T05:38:31.507Z,89.98
2022-08-22T05:41:06.815Z,86.79
2022-08-22T05:43:38.608Z,87.45
2022-08-22T05:46:10.935Z,85.47
2022-08-22T05:48:43.816Z,87.94
2022-08-22T05:51:21.548Z,89.42
2022-08-22T05:53:53.608Z,92.79
2022-08-22T05:56:28.564Z,88.62
2022-08-22T05:59:01.679Z,87.71
2022-08-22T06:01:33.679Z,88.88
2022-08-22T06:04:08.117Z,83.46
2022-08-22T06:06:42.528Z,82.71
2022-08-22T06:09:18.997Z,83.22
2022-08-22T06:11:53.982Z,82.04
2022-08-22T06:14:32.719Z,84.77
2022-08-22T06:17:07.573Z,83.24
2022-08-22T06:19:40.246Z,84.80
2022-08-22T06:22:13.756Z,84.87
2022-08-22T06:24:49.990Z,84.27
2022-08-22T06:27:22.973Z,84.79
2022-08-22T06:29:56.045Z,85.32
2022-08-22T06:32:52.850Z,85.00
2022-08-22T06:35:23.527Z,84.37
2022-08-22T06:37:57.678Z,85.75
2022-08-22T06:40:29.337Z,83.30
2022-08-22T06:42:59.915Z,83.29
2022-08-22T06:45:32.074Z,84.33
2022-08-22T06:48:16.125Z,81.39
2022-08-22T06:50:46.840Z,83.29
2022-08-22T06:53:19.657Z,84.01
2022-08-22T06:55:52.133Z,83.52
2022-08-22T06:58:32.828Z,84.53
2022-08-22T07:01:11.705Z,84.36
2022-08-22T07:03:44.907Z,82.96
2022-08-22T07:06:17.026Z,84.21
2022-08-22T07:08:53.626Z,81.15
2022-08-22T07:11:28.002Z,82.67
2022-08-22T07:14:01.839Z,78.20
2022-08-22T07:16:32.875Z,76.55
2022-08-22T07:19:01.280Z,78.44
2022-08-22T07:21:36.068Z,73.30
2022-08-22T07:24:06.720Z,76.40
2022-08-22T07:26:51.799Z,76.87
2022-08-22T07:29:29.133Z,72.06
2022-08-22T07:32:06.012Z,72.26
2022-08-22T07:34:46.792Z,69.06
2022-08-22T07:37:18.314Z,68.82
2022-08-22T07:39:54.567Z,63.54
2022-08-22T07:42:30.434Z,64.47
2022-08-22T07:45:06.447Z,61.43
2022-08-22T07:47:59.363Z,57.77
2022-08-22T07:50:37.643Z,57.96
2022-08-22T07:53:17.299Z,57.29
2022-08-22T07:55:49.880Z,57.06
2022-08-22T07:58:19.757Z,55.19
2022-08-22T08:00:51.542Z,55.01
2022-08-22T08:03:23.280Z,54.14
2022-08-22T08:05:51.849Z,54.09
2022-08-22T08:08:26.531Z,54.62
2022-08-22T08:10:59.891Z,54.38
2022-08-22T08:13:32.855Z,52.66
2022-08-22T08:16:01.697Z,52.52
2022-08-22T08:18:33.960Z,54.22
2022-08-22T08:21:08.433Z,52.76
2022-08-22T08:23:39.768Z,51.06
2022-08-22T08:26:15.841Z,52.60
2022-08-22T08:28:47.872Z,52.98
2022-08-22T08:31:23.811Z,53.00
2022-08-22T08:34:00.082Z,51.24
2022-08-22T08:36:37.925Z,52.45
2022-08-22T08:39:17.774Z,51.73
2022-08-22T08:42:24.683Z,50.15
2022-08-22T08:45:28.859Z,50.51
2022-08-22T08:48:17.642Z,48.63
2022-08-22T08:51:04.242Z,48.99
2022-08-22T08:53:57.254Z,49.62
2022-08-22T08:56:33.852Z,47.68
2022-08-22T08:59:13.149Z,48.93
2022-08-22T09:02:07.281Z,49.46
2022-08-22T09:05:08.017Z,49.06
2022-08-22T09:07:47.859Z,48.33
2022-08-22T09:10:34.922Z,48.43
2022-08-22T09:13:40.899Z,48.08
2022-08-22T09:16:28.076Z,48.16
2022-08-22T09:19:20.150Z,48.03
2022-08-22T09:22:14.298Z,48.18
2022-08-22T09:25:01.841Z,48.05
2022-08-22T09:27:39.211Z,48.95
2022-08-22T09:30:12.699Z,47.82
2022-08-22T09:32:54.638Z,47.02
2022-08-22T09:35:31.948Z,46.76
2022-08-22T09:38:30.610Z,47.44
2022-08-22T09:41:12.466Z,46.55
2022-08-22T09:43:48.746Z,46.34
2022-08-22T09:46:31.472Z,45.62
2022-08-22T09:49:12.803Z,45.91
2022-08-22T09:51:46.214Z,44.97
2022-08-22T09:54:22.940Z,45.40
2022-08-22T09:57:14.025Z,46.43
2022-08-22T09:59:58.077Z,44.49
2022-08-22T10:02:36.366Z,45.42
2022-08-22T10:05:40.872Z,45.78
2022-08-22T10:08:36.189Z,46.65
2022-08-22T10:11:20.973Z,47.09
2022-08-22T10:14:01.576Z,48.35
2022-08-22T10:16:42.183Z,50.22
2022-08-22T10:19:18.693Z,50.53
2022-08-22T10:22:07.692Z,51.46
2022-08-22T10:24:44.700Z,52.24
2022-08-22T10:27:17.870Z,52.69
2022-08-22T10:30:01.832Z,53.02
2022-08-22T10:32:37.690Z,53.31
2022-08-22T10:35:34.040Z,53.84
2022-08-22T10:38:10.543Z,53.81
2022-08-22T10:40:44.641Z,55.79
2022-08-22T10:43:28.791Z,54.96
2022-08-22T10:46:04.527Z,54.86
2022-08-22T10:48:48.071Z,54.96
2022-08-22T10:51:29.157Z,55.86
2022-08-22T10:54:14.723Z,55.32
2022-08-22T10:56:53.995Z,56.48
2022-08-22T10:59:38.047Z,56.49
2022-08-22T11:02:30.496Z,56.77
2022-08-22T11:05:28.474Z,56.93
2022-08-22T11:08:14.825Z,56.57
2022-08-22T11:11:05.080Z,56.10
2022-08-22T11:13:43.238Z,55.91
2022-08-22T11:16:23.889Z,56.16
2022-08-22T11:19:28.692Z,55.68
2022-08-22T11:22:10.236Z,56.05
2022-08-22T11:25:11.242Z,55.98
2022-08-22T11:27:50.875Z,55.99
2022-08-22T11:30:25.974Z,56.65
2022-08-22T11:33:33.880Z,55.74
2022-08-22T11:36:31.111Z,54.11
2022-08-22T11:39:17.948Z,54.32
2022-08-22T11:41:56.310Z,53.67
2022-08-22T11:44:34.550Z,54.05
2022-08-22T11:47:12.115Z,54.86
2022-08-22T11:49:51.642Z,54.74
2022-08-22T11:52:29.801Z,54.58
2022-08-22T11:55:21.534Z,55.20
2022-08-22T11:57:52.718Z,55.83
2022-08-22T12:00:33.896Z,55.69
2022-08-22T12:03:36.239Z,56.29
2022-08-22T12:06:15.366Z,57.83
2022-08-22T12:09:18.031Z,56.97
2022-08-22T12:12:00.063Z,57.74
2022-08-22T12:14:34.637Z,57.96
2022-08-22T12:17:26.284Z,59.79
2022-08-22T12:20:20.239Z,58.19
2022-08-22T12:23:18.458Z,58.85
2022-08-22T12:26:11.061Z,58.57
2022-08-22T12:28:47.038Z,59.26
2022-08-22T12:31:26.476Z,60.01
2022-08-22T12:34:07.969Z,59.56
2022-08-22T12:36:51.065Z,58.71
2022-08-22T12:40:00.408Z,58.54
2022-08-22T12:43:15.360Z,59.53
2022-08-22T12:46:06.395Z,58.36
2022-08-22T12:49:09.216Z,59.57
2022-08-22T12:51:56.103Z,59.09
2022-08-22T12:55:01.697Z,58.96
2022-08-22T12:57:40.909Z,59.05
2022-08-22T13:00:27.057Z,59.16
2022-08-22T13:03:00.516Z,58.83
2022-08-22T13:05:40.431Z,58.46
2022-08-22T13:11:38.394Z,57.75
2022-08-22T13:14:19.598Z,58.05
2022-08-22T13:16:57.677Z,58.06
2022-08-22T13:19:29.352Z,57.80
2022-08-22T13:22:04.516Z,57.43
2022-08-22T13:24:40.140Z,57.33
2022-08-22T13:27:24.595Z,58.14
2022-08-22T13:30:00.308Z,57.60
2022-08-22T13:32:34.027Z,57.94
2022-08-22T13:35:04.066Z,58.13
2022-08-22T13:37:38.077Z,58.51
2022-08-22T13:40:11.529Z,58.31
2022-08-22T13:42:55.393Z,58.50
2022-08-22T13:45:26.105Z,58.72
2022-08-22T13:47:58.590Z,59.09
2022-08-22T13:50:35.856Z,59.14
2022-08-22T13:53:32.425Z,60.30
2022-08-22T13:56:15.512Z,59.45
2022-08-22T13:58:51.444Z,59.81
2022-08-22T14:01:33.182Z,59.46
2022-08-22T14:04:28.492Z,60.00
2022-08-22T14:07:14.689Z,60.16
2022-08-22T14:09:54.403Z,60.04
2022-08-22T14:12:26.203Z,60.23
2022-08-22T14:14:58.668Z,60.30
2022-08-22T14:17:34.442Z,60.75
2022-08-22T14:20:11.179Z,61.10
2022-08-22T14:22:43.872Z,61.37
2022-08-22T14:25:21.268Z,61.71
2022-08-22T14:27:59.437Z,61.15
2022-08-22T14:30:33.502Z,61.57
2022-08-22T14:33:14.924Z,61.69
2022-08-22T14:35:52.953Z,61.73
2022-08-22T14:38:30.660Z,61.46
2022-08-22T14:41:05.514Z,61.09
2022-08-22T14:43:52.470Z,61.73
2022-08-22T14:46:27.918Z,61.36
2022-08-22T14:49:26.867Z,61.48
2022-08-22T14:52:05.404Z,61.39
2022-08-22T14:54:34.475Z,61.20
2022-08-22T14:57:19.766Z,61.08
2022-08-22T14:59:51.797Z,61.00
2022-08-22T15:02:27.820Z,61.26
2022-08-22T15:04:57.242Z,61.16
2022-08-22T15:07:29.549Z,60.94
2022-08-22T15:10:03.846Z,60.84
2022-08-22T15:12:38.736Z,60.30
2022-08-22T15:15:11.691Z,60.53
2022-08-22T15:17:44.993Z,60.66
2022-08-22T15:20:28.117Z,60.75
2022-08-22T15:23:02.086Z,60.86
2022-08-22T15:25:35.085Z,60.54
2022-08-22T15:28:14.113Z,60.51
2022-08-22T15:30:54.076Z,60.69
2022-08-22T15:33:31.035Z,60.30
2022-08-22T15:36:11.346Z,60.21
2022-08-22T15:38:48.153Z,59.86
2022-08-22T15:41:38.637Z,59.89
2022-08-22T15:44:14.958Z,59.75
2022-08-22T15:47:06.012Z,60.17
2022-08-22T15:49:50.532Z,59.64
2022-08-22T15:52:26.080Z,59.44
2022-08-22T15:55:18.836Z,58.87
2022-08-22T15:58:00.401Z,58.68
2022-08-22T16:00:43.569Z,58.58
2022-08-22T16:03:24.921Z,58.76
2022-08-22T16:05:56.441Z,58.49
2022-08-22T16:08:32.686Z,58.94
2022-08-22T16:11:32.422Z,59.01
2022-08-22T16:14:24.075Z,58.65
2022-08-22T16:17:01.435Z,58.97
2022-08-22T16:19:31.616Z,59.40
2022-08-22T16:22:15.159Z,58.94
2022-08-22T16:25:14.365Z,58.76
2022-08-22T16:27:57.491Z,58.66
2022-08-22T16:30:36.927Z,59.24
2022-08-22T16:33:17.901Z,58.82
2022-08-22T16:36:25.801Z,59.63
2022-08-22T16:38:57.693Z,58.97
2022-08-22T16:41:33.882Z,58.68
2022-08-22T16:44:24.752Z,58.48
2022-08-22T16:46:55.383Z,59.28
2022-08-22T16:49:31.660Z,59.34
2022-08-22T16:52:37.457Z,59.36
2022-08-22T16:55:27.643Z,59.05
2022-08-22T16:58:08.162Z,59.84
2022-08-22T17:00:49.745Z,60.33
2022-08-22T17:03:27.674Z,60.64
2022-08-22T17:06:14.735Z,65.27
2022-08-22T17:08:57.530Z,67.54
2022-08-22T17:11:41.775Z,67.33
2022-08-22T17:14:36.596Z,65.36
2022-08-22T17:17:21.629Z,64.44
2022-08-22T17:20:03.025Z,64.24
2022-08-22T17:22:42.508Z,65.20
2022-08-22T17:25:20.762Z,65.21
2022-08-22T17:27:56.095Z,65.13
2022-08-22T17:30:30.085Z,64.90
2022-08-22T17:33:11.666Z,64.85
2022-08-22T17:36:03.041Z,64.34
2022-08-22T17:38:54.303Z,65.13
2022-08-22T17:41:31.954Z,64.80
2022-08-22T17:44:11.018Z,65.07
2022-08-22T17:46:47.061Z,65.67
2022-08-22T17:49:28.706Z,65.59
2022-08-22T17:52:07.696Z,65.85
2022-08-22T17:54:41.148Z,66.75
2022-08-22T17:57:14.390Z,68.38
2022-08-22T17:59:50.790Z,70.55
2022-08-22T18:02:24.641Z,71.28
2022-08-22T18:05:03.117Z,71.28
2022-08-22T18:07:41.088Z,69.73
2022-08-22T18:10:21.679Z,71.32
2022-08-22T18:12:55.000Z,71.74
2022-08-22T18:15:29.715Z,71.49
2022-08-22T18:18:03.808Z,71.81
2022-08-22T18:20:38.944Z,71.32
2022-08-22T18:23:24.878Z,71.63
2022-08-22T18:26:21.600Z,71.14
2022-08-22T18:28:58.315Z,70.74
2022-08-22T18:31:39.761Z,71.33
2022-08-22T18:34:15.753Z,70.07
2022-08-22T18:36:54.926Z,69.73
2022-08-22T18:39:29.489Z,70.08
2022-08-22T18:42:07.166Z,69.87
2022-08-22T18:44:39.036Z,69.91
2022-08-22T18:47:17.351Z,70.06
2022-08-22T18:49:54.175Z,70.69
2022-08-22T18:52:42.425Z,70.65
2022-08-22T18:55:31.400Z,70.50
2022-08-22T18:58:16.673Z,70.75
2022-08-22T19:00:58.503Z,71.94
2022-08-22T19:03:50.457Z,72.90
2022-08-22T19:06:47.801Z,73.75
2022-08-22T19:09:48.817Z,73.48
2022-08-22T19:12:37.085Z,74.35
2022-08-22T19:15:25.143Z,76.29
2022-08-22T19:18:30.906Z,75.49
2022-08-22T19:21:37.930Z,76.02
2022-08-22T19:24:09.041Z,78.07
2022-08-22T19:26:42.179Z,78.67
2022-08-22T19:29:48.103Z,79.32
2022-08-22T19:32:50.047Z,79.83
2022-08-22T19:35:26.118Z,81.03
2022-08-22T19:37:57.285Z,81.27
2022-08-22T19:40:56.205Z,82.70
2022-08-22T19:43:32.954Z,84.24
2022-08-22T19:46:04.755Z,84.63
2022-08-22T19:48:43.557Z,83.22
2022-08-22T19:51:25.530Z,85.63
2022-08-22T19:54:07.876Z,83.40
2022-08-22T19:56:52.458Z,87.54
2022-08-22T19:59:30.197Z,88.20
2022-08-22T20:02:06.466Z,86.57
2022-08-22T20:04:57.943Z,87.09
2022-08-22T20:07:39.274Z,87.61
2022-08-22T20:10:20.749Z,87.46
2022-08-22T20:13:04.335Z,88.89
2022-08-22T20:15:36.306Z,89.17
2022-08-22T20:19:09.551Z,88.00
2022-08-22T20:21:00.875Z,92.39
2022-08-22T20:23:32.366Z,89.61
2022-08-22T20:26:01.265Z,87.64
2022-08-22T20:28:47.601Z,91.06
2022-08-22T20:31:22.262Z,92.39
2022-08-22T20:33:56.549Z,92.35
2022-08-22T20:36:27.531Z,92.95
2022-08-22T20:39:03.298Z,93.63
2022-08-22T20:41:35.670Z,93.06
2022-08-22T20:44:12.502Z,94.44
2022-08-22T20:46:53.635Z,95.65
2022-08-22T20:49:28.451Z,94.00
2022-08-22T20:52:00.756Z,95.88
2022-08-22T20:54:32.109Z,91.43
2022-08-22T20:57:02.953Z,98.96
2022-08-22T20:59:38.035Z,95.65
2022-08-22T21:02:13.946Z,94.45
2022-08-22T21:04:50.053Z,93.84
2022-08-22T21:07:26.293Z,96.49
2022-08-22T21:10:21.612Z,97.64
2022-08-22T21:13:06.006Z,98.01
2022-08-22T21:15:37.620Z,97.76
2022-08-22T21:18:07.396Z,99.93
2022-08-22T21:20:38.488Z,98.44
2022-08-22T21:23:09.935Z,95.43
2022-08-22T21:25:53.422Z,98.93
2022-08-22T21:28:33.021Z,97.28
2022-08-22T21:31:10.471Z,97.31
2022-08-22T21:33:42.576Z,96.85
2022-08-22T21:36:13.203Z,98.23
2022-08-22T21:38:47.314Z,95.67
2022-08-22T21:41:25.880Z,96.47
2022-08-22T21:43:54.260Z,96.65
2022-08-22T21:46:28.976Z,94.33
2022-08-22T21:49:03.476Z,97.03
2022-08-22T21:51:41.945Z,98.01
2022-08-22T21:54:40.916Z,97.32
2022-08-22T21:57:32.702Z,97.16
2022-08-22T22:00:01.751Z,96.33
2022-08-22T22:02:36.397Z,98.96
2022-08-22T22:05:09.979Z,98.64
2022-08-22T22:07:41.846Z,98.38
2022-08-22T22:10:12.675Z,96.79
2022-08-22T22:12:44.235Z,97.28
2022-08-22T22:15:15.925Z,98.42
2022-08-22T22:17:44.200Z,98.58
2022-08-22T22:20:15.508Z,98.68
2022-08-22T22:22:46.643Z,97.06
2022-08-22T22:25:40.676Z,98.09
2022-08-22T22:28:08.093Z,99.14
2022-08-22T22:30:36.548Z,99.41
2022-08-22T22:33:05.864Z,99.31
2022-08-22T22:35:34.395Z,98.48
2022-08-22T22:38:02.558Z,100.00
2022-08-22T22:40:31.638Z,100.00
2022-08-22T22:42:59.767Z,99.98
2022-08-22T22:45:29.392Z,100.00
2022-08-22T22:47:57.899Z,100.00
2022-08-22T22:50:26.071Z,100.00
2022-08-22T22:52:54.357Z,100.00
2022-08-22T22:55:24.264Z,100.00
2022-08-22T22:57:59.124Z,100.00
2022-08-22T23:00:31.093Z,100.00
2022-08-22T23:03:00.538Z,100.00
2022-08-22T23:05:29.425Z,100.00
2022-08-22T23:07:58.672Z,100.00
2022-08-22T23:10:29.686Z,100.00
2022-08-22T23:12:58.093Z,100.00
2022-08-22T23:15:26.882Z,100.00
2022-08-22T23:17:56.435Z,100.00
2022-08-22T23:20:25.323Z,100.00
2022-08-22T23:22:53.418Z,100.00
2022-08-22T23:25:21.591Z,100.00
2022-08-22T23:27:52.473Z,100.00
2022-08-22T23:30:22.403Z,100.00
2022-08-22T23:32:50.483Z,100.00
2022-08-22T23:35:20.209Z,100.00
2022-08-22T23:37:48.342Z,100.00
2022-08-22T23:40:16.769Z,100.00
2022-08-22T23:42:44.918Z,100.00
2022-08-22T23:45:14.477Z,100.00
2022-08-22T23:47:42.598Z,100.00
2022-08-22T23:50:10.844Z,100.00
2022-08-22T23:52:40.293Z,100.00
2022-08-22T23:55:08.881Z,100.00
2022-08-22T23:57:36.951Z,100.00
